createdAt,value
2022-11-24T00:00:43.645Z,2.45
2022-11-24T00:03:10.180Z,2.43
2022-11-24T00:05:36.757Z,2.32
2022-11-24T00:08:03.171Z,2.16
2022-11-24T00:10:29.598Z,2.63
2022-11-24T00:12:55.988Z,2.57
2022-11-24T00:15:22.410Z,2.40
2022-11-24T00:17:48.837Z,2.42
2022-11-24T00:20:15.359Z,2.61
2022-11-24T00:22:41.784Z,3.01
2022-11-24T00:25:08.207Z,3.09
2022-11-24T00:27:34.631Z,3.01
2022-11-24T00:30:01.061Z,3.06
2022-11-24T00:32:27.474Z,2.79
2022-11-24T00:34:53.891Z,2.87
2022-11-24T00:37:20.326Z,2.39
2022-11-24T00:39:46.739Z,1.99
2022-11-24T00:42:13.155Z,1.91
2022-11-24T00:44:39.657Z,1.93
2022-11-24T00:47:06.198Z,1.86
2022-11-24T00:49:32.682Z,1.87
2022-11-24T00:51:59.079Z,2.51
2022-11-24T00:54:25.499Z,2.40
2022-11-24T00:56:51.915Z,2.13
2022-11-24T00:59:18.361Z,2.23
2022-11-24T01:01:44.880Z,2.38
2022-11-24T01:04:11.374Z,2.40
2022-11-24T01:06:37.780Z,2.49
2022-11-24T01:09:04.205Z,2.36
2022-11-24T01:11:30.636Z,2.12
2022-11-24T01:13:57.087Z,1.88
2022-11-24T01:16:23.573Z,1.97
2022-11-24T01:18:50.075Z,1.78
2022-11-24T01:21:16.488Z,1.74
2022-11-24T01:23:42.895Z,1.99
2022-11-24T01:26:09.315Z,1.76
2022-11-24T01:28:35.741Z,1.66
2022-11-24T01:31:02.220Z,1.68
2022-11-24T01:33:28.695Z,1.47
2022-11-24T01:35:55.108Z,1.59
2022-11-24T01:38:21.533Z,1.54
2022-11-24T01:40:47.985Z,1.14
2022-11-24T01:43:14.374Z,1.07
2022-11-24T01:45:40.990Z,1.06
2022-11-24T01:48:07.690Z,1.16
2022-11-24T01:50:34.270Z,1.22
2022-11-24T01:53:00.693Z,1.13
2022-11-24T01:55:27.100Z,1.24
2022-11-24T01:57:53.522Z,1.50
2022-11-24T02:00:19.930Z,1.34
2022-11-24T02:02:46.420Z,1.28
2022-11-24T02:05:12.885Z,0.99
2022-11-24T02:07:39.327Z,1.08
2022-11-24T02:10:05.780Z,1.14
2022-11-24T02:12:32.187Z,0.98
2022-11-24T02:14:58.633Z,1.21
2022-11-24T02:17:25.049Z,1.31
2022-11-24T02:19:51.460Z,1.54
2022-11-24T02:22:17.878Z,1.19
2022-11-24T02:24:44.302Z,1.07
2022-11-24T02:27:10.746Z,1.04
2022-11-24T02:29:37.170Z,1.05
2022-11-24T02:32:03.565Z,1.30
2022-11-24T02:34:29.972Z,1.18
2022-11-24T02:36:56.645Z,1.07
2022-11-24T02:39:23.103Z,1.03
2022-11-24T02:47:12.444Z,1.47
2022-11-24T02:49:38.852Z,1.37
2022-11-24T02:52:05.247Z,1.56
2022-11-24T02:54:31.934Z,1.70
2022-11-24T02:56:58.696Z,1.83
2022-11-24T02:59:25.091Z,1.96
2022-11-24T03:01:51.516Z,1.72
2022-11-24T03:04:17.976Z,1.94
2022-11-24T03:06:44.371Z,1.63
2022-11-24T03:09:10.918Z,1.44
2022-11-24T03:11:37.315Z,1.51
2022-11-24T03:14:03.712Z,1.61
2022-11-24T03:16:30.156Z,2.06
2022-11-24T03:18:56.590Z,1.70
2022-11-24T03:21:23.035Z,1.71
2022-11-24T03:23:49.456Z,1.50
2022-11-24T03:26:15.888Z,1.87
2022-11-24T03:28:42.326Z,1.53
2022-11-24T03:31:08.784Z,1.24
2022-11-24T03:33:35.257Z,1.61
2022-11-24T03:36:01.755Z,1.34
2022-11-24T03:38:28.159Z,1.45
2022-11-24T03:40:54.549Z,1.16
2022-11-24T03:43:20.978Z,1.18
2022-11-24T03:45:47.400Z,1.28
2022-11-24T03:48:13.797Z,1.39
2022-11-24T03:50:40.239Z,1.55
2022-11-24T03:53:06.662Z,1.63
2022-11-24T03:55:33.082Z,2.14
2022-11-24T03:57:59.480Z,2.02
2022-11-24T04:00:25.875Z,2.93
2022-11-24T04:02:52.325Z,2.55
2022-11-24T04:05:18.788Z,2.74
2022-11-24T04:07:45.409Z,5.42
2022-11-24T04:10:11.843Z,2.73
2022-11-24T04:12:38.244Z,4.86
2022-11-24T04:15:04.641Z,2.25
2022-11-24T04:17:31.058Z,2.20
2022-11-24T04:19:57.484Z,2.10
2022-11-24T04:22:23.914Z,1.90
2022-11-24T04:24:50.338Z,2.06
2022-11-24T04:27:16.745Z,2.18
2022-11-24T04:29:43.199Z,2.20
2022-11-24T04:32:09.615Z,1.95
2022-11-24T04:34:36.280Z,2.21
2022-11-24T04:37:02.795Z,2.20
2022-11-24T04:39:29.199Z,2.71
2022-11-24T04:41:55.780Z,2.77
2022-11-24T04:44:22.195Z,3.26
2022-11-24T04:46:48.676Z,2.82
2022-11-24T04:49:15.152Z,3.09
2022-11-24T04:51:41.603Z,3.20
2022-11-24T04:54:08.014Z,3.18
2022-11-24T04:56:34.425Z,2.96
2022-11-24T04:59:05.221Z,2.53
2022-11-24T05:01:34.624Z,2.48
2022-11-24T05:04:01.206Z,2.60
2022-11-24T05:06:27.677Z,2.49
2022-11-24T05:08:54.112Z,2.64
2022-11-24T05:11:20.530Z,2.31
2022-11-24T05:13:46.922Z,3.03
2022-11-24T05:16:13.377Z,2.64
2022-11-24T05:18:39.835Z,2.63
2022-11-24T05:21:06.291Z,2.13
2022-11-24T05:23:32.696Z,2.29
2022-11-24T05:25:59.127Z,2.27
2022-11-24T05:28:25.522Z,2.49
2022-11-24T05:30:51.969Z,2.36
2022-11-24T05:33:18.361Z,2.66
2022-11-24T05:35:44.799Z,2.43
2022-11-24T05:38:11.325Z,2.16
2022-11-24T05:40:37.717Z,2.16
2022-11-24T05:43:04.111Z,2.47
2022-11-24T05:45:30.570Z,2.59
2022-11-24T05:47:57.022Z,2.41
2022-11-24T05:50:23.461Z,2.39
2022-11-24T05:52:49.909Z,2.37
2022-11-24T05:55:16.313Z,2.01
2022-11-24T05:57:42.757Z,2.34
2022-11-24T06:00:09.176Z,2.71
2022-11-24T06:02:35.732Z,2.72
2022-11-24T06:05:02.208Z,2.41
2022-11-24T06:07:28.692Z,2.39
2022-11-24T06:09:55.160Z,2.14
2022-11-24T06:12:21.732Z,2.57
2022-11-24T06:14:48.142Z,2.97
2022-11-24T06:17:14.636Z,2.94
2022-11-24T06:19:42.293Z,2.86
2022-11-24T06:22:08.839Z,2.44
2022-11-24T06:24:35.525Z,2.61
2022-11-24T06:27:02.171Z,2.68
2022-11-24T06:29:28.656Z,2.78
2022-11-24T06:31:55.183Z,3.25
2022-11-24T06:34:21.687Z,2.81
2022-11-24T06:36:48.120Z,2.70
2022-11-24T06:39:14.546Z,2.84
2022-11-24T06:41:40.989Z,2.61
2022-11-24T06:44:07.404Z,2.80
2022-11-24T06:46:33.821Z,3.19
2022-11-24T06:49:00.532Z,3.04
2022-11-24T06:51:26.975Z,2.98
2022-11-24T06:53:53.445Z,2.93
2022-11-24T06:56:19.895Z,3.07
2022-11-24T06:58:46.315Z,2.99
2022-11-24T07:01:12.774Z,2.92
2022-11-24T07:03:39.278Z,2.97
2022-11-24T07:06:05.683Z,3.09
2022-11-24T07:08:32.128Z,3.05
2022-11-24T07:10:58.570Z,3.27
2022-11-24T07:13:25.024Z,3.29
2022-11-24T07:15:51.422Z,3.45
2022-11-24T07:18:19.076Z,3.30
2022-11-24T07:20:45.506Z,3.90
2022-11-24T07:23:12.044Z,2.78
2022-11-24T07:25:38.478Z,3.52
2022-11-24T07:28:04.973Z,3.72
2022-11-24T07:30:31.402Z,3.22
2022-11-24T07:32:57.823Z,2.72
2022-11-24T07:35:24.257Z,2.83
2022-11-24T07:37:50.665Z,3.08
2022-11-24T07:40:17.074Z,3.20
2022-11-24T07:42:43.538Z,3.35
2022-11-24T07:45:10.000Z,3.72
2022-11-24T07:47:36.460Z,3.64
2022-11-24T07:50:02.896Z,3.39
2022-11-24T07:52:29.324Z,2.92
2022-11-24T07:54:55.776Z,2.57
2022-11-24T07:57:22.216Z,3.55
2022-11-24T07:59:48.679Z,3.36
2022-11-24T08:02:15.119Z,2.77
2022-11-24T08:04:41.828Z,2.45
2022-11-24T08:07:08.426Z,3.74
2022-11-24T08:09:35.110Z,3.04
2022-11-24T08:12:02.596Z,3.74
2022-11-24T08:14:30.200Z,5.29
2022-11-24T08:16:56.692Z,14.14
2022-11-24T08:19:23.174Z,8.98
2022-11-24T08:21:49.967Z,22.69
2022-11-24T08:24:16.544Z,10.08
2022-11-24T08:26:43.140Z,4.56
2022-11-24T08:29:10.736Z,3.55
2022-11-24T08:31:37.439Z,2.85
2022-11-24T08:34:05.006Z,2.49
2022-11-24T08:36:32.557Z,2.67
2022-11-24T08:38:59.157Z,2.59
2022-11-24T08:41:25.805Z,2.73
2022-11-24T08:43:52.404Z,2.90
2022-11-24T08:46:18.950Z,2.64
2022-11-24T08:48:46.610Z,2.46
2022-11-24T08:51:13.199Z,3.09
2022-11-24T08:53:39.776Z,3.23
2022-11-24T08:56:06.385Z,2.84
2022-11-24T08:58:33.149Z,2.68
2022-11-24T09:01:01.607Z,2.76
2022-11-24T09:03:29.189Z,2.67
2022-11-24T09:05:56.807Z,3.17
2022-11-24T09:08:23.346Z,2.80
2022-11-24T09:10:49.973Z,2.59
2022-11-24T09:13:17.544Z,3.03
2022-11-24T09:15:45.136Z,3.16
2022-11-24T09:18:11.818Z,3.11
2022-11-24T09:20:38.443Z,2.69
2022-11-24T09:23:06.067Z,3.02
2022-11-24T09:25:32.671Z,2.57
2022-11-24T09:28:00.285Z,2.80
2022-11-24T09:30:26.895Z,2.74
2022-11-24T09:32:54.504Z,2.70
2022-11-24T09:35:21.083Z,2.71
2022-11-24T09:37:47.666Z,2.82
2022-11-24T09:40:15.275Z,2.36
2022-11-24T09:42:41.857Z,2.24
2022-11-24T09:45:08.268Z,2.58
2022-11-24T09:47:34.704Z,2.61
2022-11-24T09:50:01.162Z,2.56
2022-11-24T09:52:28.235Z,2.46
2022-11-24T09:54:54.646Z,2.35
2022-11-24T09:57:21.412Z,2.18
2022-11-24T09:59:48.256Z,2.45
2022-11-24T10:02:15.605Z,2.47
2022-11-24T10:04:42.289Z,2.87
2022-11-24T10:07:09.868Z,3.06
2022-11-24T10:09:37.489Z,2.47
2022-11-24T10:12:05.023Z,2.58
2022-11-24T10:14:31.599Z,2.66
2022-11-24T10:16:58.193Z,2.75
2022-11-24T10:19:36.273Z,2.91
2022-11-24T10:22:03.579Z,2.64
2022-11-24T10:24:30.052Z,2.90
2022-11-24T10:26:56.444Z,2.86
2022-11-24T10:29:22.820Z,3.15
2022-11-24T10:31:49.278Z,2.56
2022-11-24T10:34:15.694Z,2.68
2022-11-24T10:36:42.217Z,2.45
2022-11-24T10:39:08.786Z,2.32
2022-11-24T10:41:35.224Z,2.48
2022-11-24T10:44:01.628Z,2.42
2022-11-24T10:46:28.040Z,2.51
2022-11-24T10:48:54.496Z,2.31
2022-11-24T10:51:20.923Z,1.85
2022-11-24T10:53:47.358Z,1.49
2022-11-24T10:56:13.759Z,1.56
2022-11-24T10:58:40.190Z,1.60
2022-11-24T11:01:06.689Z,1.71
2022-11-24T11:03:33.200Z,2.00
2022-11-24T11:05:59.655Z,2.11
2022-11-24T11:08:26.159Z,2.27
2022-11-24T11:10:52.594Z,2.48
2022-11-24T11:13:19.022Z,2.75
2022-11-24T11:15:45.458Z,2.31
2022-11-24T11:18:12.059Z,2.62
2022-11-24T11:20:38.489Z,2.34
2022-11-24T11:23:05.017Z,2.28
2022-11-24T11:25:31.619Z,2.41
2022-11-24T11:27:58.048Z,2.30
2022-11-24T11:35:57.335Z,2.54
2022-11-24T11:38:23.792Z,2.45
2022-11-24T11:40:50.267Z,2.16
2022-11-24T11:43:16.743Z,2.31
2022-11-24T11:45:43.251Z,2.21
2022-11-24T11:48:09.682Z,2.68
2022-11-24T11:50:42.916Z,2.67
2022-11-24T11:53:13.963Z,2.79
2022-11-24T11:55:43.962Z,2.69
2022-11-24T11:58:13.101Z,2.50
2022-11-24T12:00:39.513Z,2.29
2022-11-24T12:03:06.050Z,2.39
2022-11-24T12:05:32.578Z,2.16
2022-11-24T12:08:01.327Z,2.36
2022-11-24T12:10:31.469Z,2.68
2022-11-24T12:12:57.890Z,2.83
2022-11-24T12:15:24.319Z,2.52
2022-11-24T12:17:50.753Z,2.51
2022-11-24T12:20:17.226Z,2.49
2022-11-24T12:22:43.634Z,2.23
2022-11-24T12:25:10.083Z,2.22
2022-11-24T12:27:39.355Z,2.63
2022-11-24T12:30:05.797Z,2.94
2022-11-24T12:32:32.228Z,2.55
2022-11-24T12:34:58.743Z,2.38
2022-11-24T12:37:25.160Z,2.36
2022-11-24T12:39:51.585Z,2.36
2022-11-24T12:42:18.036Z,2.30
2022-11-24T12:44:44.482Z,2.65
2022-11-24T12:47:11.056Z,2.39
2022-11-24T12:49:37.804Z,2.82
2022-11-24T12:52:04.413Z,2.14
2022-11-24T12:54:30.851Z,2.37
2022-11-24T12:56:57.288Z,2.26
2022-11-24T12:59:23.714Z,2.49
2022-11-24T13:01:50.218Z,2.16
2022-11-24T13:04:16.693Z,2.76
2022-11-24T13:06:48.812Z,2.59
2022-11-24T13:09:15.968Z,2.31
2022-11-24T13:11:42.394Z,2.36
2022-11-24T13:14:08.810Z,2.23
2022-11-24T13:16:37.162Z,2.18
2022-11-24T13:19:10.830Z,1.97
2022-11-24T13:21:37.315Z,2.23
2022-11-24T13:24:03.747Z,2.12
2022-11-24T13:26:30.180Z,2.44
2022-11-24T13:29:03.594Z,2.11
2022-11-24T13:31:39.739Z,2.57
2022-11-24T13:34:06.198Z,2.51
2022-11-24T13:36:32.658Z,2.24
2022-11-24T13:38:59.081Z,2.58
2022-11-24T13:41:28.848Z,2.06
2022-11-24T13:43:55.369Z,2.18
2022-11-24T13:46:21.849Z,2.38
2022-11-24T13:48:48.322Z,2.21
2022-11-24T13:51:14.729Z,2.35
2022-11-24T13:53:41.219Z,2.20
2022-11-24T13:56:07.597Z,2.03
2022-11-24T13:58:34.051Z,2.01
2022-11-24T14:01:00.588Z,2.43
2022-11-24T14:03:27.696Z,2.53
2022-11-24T14:05:54.240Z,5.28
2022-11-24T14:08:20.640Z,3.97
2022-11-24T14:10:47.055Z,3.20
2022-11-24T14:13:13.450Z,2.37
2022-11-24T14:15:40.080Z,1.88
2022-11-24T14:18:06.592Z,1.77
2022-11-24T14:20:32.984Z,1.62
2022-11-24T14:22:59.424Z,1.48
2022-11-24T14:25:26.903Z,1.42
2022-11-24T14:27:53.576Z,1.61
2022-11-24T14:30:21.144Z,2.04
2022-11-24T14:32:47.598Z,1.55
2022-11-24T14:35:14.112Z,1.71
2022-11-24T14:37:40.592Z,3.92
2022-11-24T14:40:07.124Z,5.20
2022-11-24T14:42:33.577Z,3.08
2022-11-24T14:45:00.045Z,2.38
2022-11-24T14:47:30.841Z,1.97
2022-11-24T14:49:59.023Z,1.84
2022-11-24T14:52:26.552Z,1.97
2022-11-24T14:54:53.166Z,2.61
2022-11-24T14:57:19.562Z,3.29
2022-11-24T14:59:45.970Z,3.01
2022-11-24T15:02:12.381Z,2.63
2022-11-24T15:05:01.688Z,4.90
2022-11-24T15:07:25.205Z,5.28
2022-11-24T15:09:51.654Z,3.68
2022-11-24T15:12:18.090Z,3.26
2022-11-24T15:14:44.489Z,2.33
2022-11-24T15:17:10.942Z,1.75
2022-11-24T15:19:39.145Z,1.65
2022-11-24T15:22:06.779Z,1.65
2022-11-24T15:24:33.456Z,1.53
2022-11-24T15:27:00.111Z,1.74
2022-11-24T15:29:26.529Z,1.78
2022-11-24T15:31:53.267Z,1.52
2022-11-24T15:34:19.813Z,3.53
2022-11-24T15:36:46.252Z,4.60
2022-11-24T15:39:12.675Z,4.21
2022-11-24T15:41:39.132Z,3.35
2022-11-24T15:44:05.554Z,3.53
2022-11-24T15:46:32.026Z,3.56
2022-11-24T15:48:58.522Z,4.13
2022-11-24T15:51:24.955Z,3.62
2022-11-24T15:53:54.107Z,2.40
2022-11-24T15:56:23.553Z,1.79
2022-11-24T15:58:49.968Z,2.67
2022-11-24T16:01:16.580Z,2.29
2022-11-24T16:03:47.759Z,1.65
2022-11-24T16:06:19.115Z,2.37
2022-11-24T16:08:50.039Z,2.36
2022-11-24T16:11:16.445Z,1.98
2022-11-24T16:13:45.647Z,3.91
2022-11-24T16:16:16.749Z,2.86
2022-11-24T16:18:43.200Z,3.72
2022-11-24T16:21:09.642Z,1.87
2022-11-24T16:23:36.031Z,1.95
2022-11-24T16:26:02.463Z,2.02
2022-11-24T16:28:28.903Z,1.65
2022-11-24T16:30:55.312Z,2.28
2022-11-24T16:33:21.726Z,3.00
2022-11-24T16:35:48.166Z,2.62
2022-11-24T16:38:14.593Z,11.30
2022-11-24T16:40:41.025Z,3.91
2022-11-24T16:43:07.434Z,2.61
2022-11-24T16:45:33.912Z,2.14
2022-11-24T16:48:00.382Z,1.20
2022-11-24T16:50:26.783Z,2.31
2022-11-24T16:52:53.214Z,2.44
2022-11-24T16:55:19.612Z,1.38
2022-11-24T16:57:46.027Z,1.82
2022-11-24T17:00:12.427Z,1.32
2022-11-24T17:02:38.926Z,1.18
2022-11-24T17:05:05.388Z,1.14
2022-11-24T17:07:31.873Z,1.50
2022-11-24T17:09:58.346Z,1.59
2022-11-24T17:12:24.745Z,2.01
2022-11-24T17:15:16.516Z,2.49
2022-11-24T17:17:37.657Z,2.46
2022-11-24T17:20:04.109Z,2.04
2022-11-24T17:22:30.553Z,2.73
2022-11-24T17:24:57.003Z,4.20
2022-11-24T17:27:23.477Z,2.50
2022-11-24T17:29:49.921Z,2.80
2022-11-24T17:32:16.366Z,3.30
2022-11-24T17:34:42.838Z,2.13
2022-11-24T17:37:09.274Z,2.41
2022-11-24T17:39:35.682Z,3.52
2022-11-24T17:42:02.117Z,4.15
2022-11-24T17:44:28.517Z,3.55
2022-11-24T17:46:54.905Z,2.24
2022-11-24T17:49:21.299Z,1.99
2022-11-24T17:51:47.724Z,3.00
2022-11-24T17:57:00.514Z,3.95
2022-11-24T17:59:26.919Z,3.95
2022-11-24T18:01:53.358Z,9.96
2022-11-24T18:04:19.820Z,9.57
2022-11-24T18:06:46.239Z,5.59
2022-11-24T18:09:12.642Z,4.77
2022-11-24T18:11:39.066Z,4.22
2022-11-24T18:14:05.516Z,3.49
2022-11-24T18:16:31.997Z,2.82
2022-11-24T18:19:07.843Z,2.93
2022-11-24T18:21:35.111Z,2.84
2022-11-24T18:24:01.526Z,2.93
2022-11-24T18:26:27.946Z,2.73
2022-11-24T18:28:54.858Z,2.53
2022-11-24T18:31:21.353Z,2.60
2022-11-24T18:33:47.799Z,2.58
2022-11-24T18:36:14.218Z,3.24
2022-11-24T18:38:40.698Z,3.45
2022-11-24T18:41:07.157Z,3.72
2022-11-24T18:43:33.610Z,3.91
2022-11-24T18:46:00.144Z,3.42
2022-11-24T18:48:26.658Z,2.81
2022-11-24T18:50:53.067Z,3.05
2022-11-24T18:53:19.458Z,2.69
2022-11-24T18:55:45.915Z,2.34
2022-11-24T18:58:12.369Z,2.17
2022-11-24T19:00:38.775Z,2.54
2022-11-24T19:03:05.181Z,2.46
2022-11-24T19:05:31.619Z,2.67
2022-11-24T19:07:58.089Z,2.38
2022-11-24T19:10:24.549Z,1.73
2022-11-24T19:12:50.955Z,3.26
2022-11-24T19:15:17.368Z,2.68
2022-11-24T19:17:47.159Z,2.84
2022-11-24T19:20:13.855Z,2.84
2022-11-24T19:22:40.271Z,2.74
2022-11-24T19:25:06.682Z,2.77
2022-11-24T19:27:33.095Z,2.70
2022-11-24T19:29:59.530Z,2.71
2022-11-24T19:32:25.938Z,6.32
2022-11-24T19:34:52.339Z,4.67
2022-11-24T19:37:18.739Z,4.36
2022-11-24T19:39:45.155Z,4.13
2022-11-24T19:42:11.572Z,3.52
2022-11-24T19:44:37.990Z,2.36
2022-11-24T19:47:04.437Z,2.59
2022-11-24T19:49:30.850Z,3.26
2022-11-24T19:51:57.233Z,3.14
2022-11-24T19:54:23.668Z,2.70
2022-11-24T19:56:50.105Z,2.77
2022-11-24T19:59:16.499Z,3.24
2022-11-24T20:01:43.023Z,4.32
2022-11-24T20:04:09.541Z,4.67
2022-11-24T20:06:35.935Z,3.98
2022-11-24T20:09:02.350Z,3.64
2022-11-24T20:11:28.784Z,3.62
2022-11-24T20:13:55.363Z,3.87
2022-11-24T20:16:21.930Z,3.92
2022-11-24T20:18:48.366Z,3.73
2022-11-24T20:21:14.776Z,3.09
2022-11-24T20:23:41.212Z,2.64
2022-11-24T20:26:07.633Z,2.61
2022-11-24T20:28:34.075Z,2.71
2022-11-24T20:31:00.475Z,2.39
2022-11-24T20:33:26.884Z,2.13
2022-11-24T20:35:53.277Z,2.05
2022-11-24T20:38:19.691Z,2.23
2022-11-24T20:40:46.114Z,2.28
2022-11-24T20:43:12.556Z,2.72
2022-11-24T20:45:39.037Z,2.67
2022-11-24T20:48:05.480Z,3.16
2022-11-24T20:50:31.921Z,2.87
2022-11-24T20:52:58.342Z,2.84
2022-11-24T20:55:24.777Z,2.83
2022-11-24T20:57:51.229Z,3.43
2022-11-24T21:00:17.621Z,7.49
2022-11-24T21:02:44.055Z,5.95
2022-11-24T21:05:10.484Z,2.88
2022-11-24T21:07:36.919Z,2.55
2022-11-24T21:10:03.327Z,2.59
2022-11-24T21:12:29.707Z,7.71
2022-11-24T21:14:56.137Z,3.98
2022-11-24T21:17:22.550Z,2.42
2022-11-24T21:19:48.968Z,2.70
2022-11-24T21:22:15.387Z,1.90
2022-11-24T21:24:41.807Z,2.06
2022-11-24T21:27:08.288Z,2.49
2022-11-24T21:29:34.717Z,2.68
2022-11-24T21:32:01.227Z,3.03
2022-11-24T21:34:27.674Z,5.71
2022-11-24T21:36:54.077Z,4.14
2022-11-24T21:39:20.528Z,3.85
2022-11-24T21:41:46.978Z,3.19
2022-11-24T21:44:13.569Z,2.66
2022-11-24T21:46:45.099Z,2.50
2022-11-24T21:49:14.402Z,2.95
2022-11-24T21:51:40.812Z,3.13
2022-11-24T21:54:07.255Z,2.83
2022-11-24T21:56:33.682Z,2.97
2022-11-24T21:59:00.096Z,2.69
2022-11-24T22:01:26.583Z,3.43
2022-11-24T22:03:53.019Z,3.39
2022-11-24T22:06:19.414Z,3.51
2022-11-24T22:08:45.812Z,3.36
2022-11-24T22:11:12.188Z,4.47
2022-11-24T22:13:38.559Z,5.02
2022-11-24T22:16:04.974Z,4.96
2022-11-24T22:18:31.378Z,5.50
2022-11-24T22:20:57.758Z,6.78
2022-11-24T22:23:24.162Z,8.49
2022-11-24T22:25:50.551Z,7.78
2022-11-24T22:28:16.958Z,7.41
2022-11-24T22:30:43.368Z,6.81
2022-11-24T22:33:09.738Z,7.79
2022-11-24T22:35:36.103Z,7.80
2022-11-24T22:38:02.527Z,7.66
2022-11-24T22:40:28.931Z,8.21
2022-11-24T22:42:55.356Z,7.85
2022-11-24T22:45:21.778Z,7.85
2022-11-24T22:47:48.166Z,7.07
2022-11-24T22:50:14.594Z,4.07
2022-11-24T22:52:40.988Z,2.33
2022-11-24T22:55:07.422Z,1.92
2022-11-24T22:57:33.831Z,2.13
2022-11-24T23:00:00.208Z,2.55
2022-11-24T23:02:26.622Z,2.45
2022-11-24T23:04:53.043Z,2.40
2022-11-24T23:07:19.468Z,2.34
2022-11-24T23:09:45.909Z,2.84
2022-11-24T23:12:12.300Z,2.91
2022-11-24T23:14:38.729Z,3.23
2022-11-24T23:17:05.158Z,3.49
2022-11-24T23:19:31.543Z,3.22
2022-11-24T23:21:57.935Z,3.07
2022-11-24T23:24:24.342Z,3.61
2022-11-24T23:26:50.750Z,3.49
2022-11-24T23:29:17.171Z,3.27
2022-11-24T23:31:43.603Z,3.32
2022-11-24T23:34:10.038Z,2.65
2022-11-24T23:36:36.439Z,2.59
2022-11-24T23:39:02.849Z,2.63
2022-11-24T23:41:29.268Z,2.51
2022-11-24T23:43:55.713Z,3.27
2022-11-24T23:46:22.164Z,3.38
2022-11-24T23:48:48.584Z,3.15
2022-11-24T23:51:15.002Z,1.88
2022-11-24T23:53:41.501Z,2.03
2022-11-24T23:56:07.913Z,1.96
2022-11-24T23:58:34.322Z,1.73
